createdAt,value
2019-02-02T00:00:21.820Z,4.60
2019-02-02T00:01:21.833Z,5.00
2019-02-02T00:02:21.860Z,4.20
2019-02-02T00:03:21.778Z,4.90
2019-02-02T00:04:21.783Z,3.90
2019-02-02T00:05:21.765Z,4.50
2019-02-02T00:06:21.743Z,5.00
2019-02-02T00:07:21.732Z,4.90
2019-02-02T00:08:21.734Z,4.50
2019-02-02T00:09:21.761Z,5.20
2019-02-02T00:10:21.690Z,3.70
2019-02-02T00:11:21.687Z,3.90
2019-02-02T00:12:26.357Z,4.70
2019-02-02T00:13:21.715Z,4.40
2019-02-02T00:14:21.678Z,3.90
2019-02-02T00:15:21.634Z,4.70
2019-02-02T00:16:21.650Z,3.80
2019-02-02T00:17:21.620Z,4.70
2019-02-02T00:18:21.671Z,4.10
2019-02-02T00:19:21.714Z,4.50
2019-02-02T00:20:21.582Z,4.50
2019-02-02T00:21:21.565Z,4.30
2019-02-02T00:22:21.578Z,4.30
2019-02-02T00:23:21.601Z,4.40
2019-02-02T00:24:21.542Z,4.60
2019-02-02T00:25:21.535Z,3.60
2019-02-02T00:26:21.506Z,4.00
2019-02-02T00:27:21.506Z,4.70
2019-02-02T00:28:21.491Z,4.60
2019-02-02T00:29:21.502Z,4.60
2019-02-02T00:30:21.467Z,3.90
2019-02-02T00:31:21.504Z,4.00
2019-02-02T00:32:21.454Z,4.50
2019-02-02T00:33:21.438Z,4.70
2019-02-02T00:34:21.435Z,4.10
2019-02-02T00:35:21.430Z,4.30
2019-02-02T00:36:21.419Z,4.40
2019-02-02T00:37:21.391Z,3.80
2019-02-02T00:38:21.391Z,5.20
2019-02-02T00:39:21.430Z,4.60
2019-02-02T00:40:21.413Z,4.10
2019-02-02T00:41:21.339Z,4.30
2019-02-02T00:42:25.945Z,4.30
2019-02-02T00:43:21.351Z,4.20
2019-02-02T00:44:21.316Z,4.60
2019-02-02T00:45:21.344Z,5.30
2019-02-02T00:46:21.302Z,4.50
2019-02-02T00:47:21.286Z,5.00
2019-02-02T00:48:21.258Z,3.70
2019-02-02T00:49:21.257Z,4.30
2019-02-02T00:50:21.249Z,3.40
2019-02-02T00:51:21.267Z,4.40
2019-02-02T00:52:21.226Z,4.90
2019-02-02T00:53:21.277Z,4.60
2019-02-02T00:54:21.201Z,5.60
2019-02-02T00:55:21.256Z,3.90
2019-02-02T00:56:21.172Z,4.80
2019-02-02T00:57:21.165Z,5.40
2019-02-02T00:58:21.154Z,5.10
2019-02-02T00:59:21.200Z,4.90
2019-02-02T01:00:21.149Z,5.30
2019-02-02T01:01:21.132Z,3.80
2019-02-02T01:02:21.098Z,3.90
2019-02-02T01:03:21.088Z,5.10
2019-02-02T01:04:21.085Z,4.60
2019-02-02T01:05:21.076Z,4.90
2019-02-02T01:06:21.053Z,4.30
2019-02-02T01:07:21.049Z,5.80
2019-02-02T01:08:21.043Z,5.90
2019-02-02T01:09:21.063Z,6.30
2019-02-02T01:10:21.007Z,5.20
2019-02-02T01:11:20.999Z,4.40
2019-02-02T01:12:20.994Z,5.30
2019-02-02T01:13:21.014Z,4.60
2019-02-02T01:14:20.978Z,6.60
2019-02-02T01:15:20.964Z,5.00
2019-02-02T01:16:20.941Z,5.00
2019-02-02T01:17:20.928Z,4.70
2019-02-02T01:18:20.917Z,4.80
2019-02-02T01:19:20.916Z,4.70
2019-02-02T01:20:20.909Z,5.60
2019-02-02T01:21:20.990Z,4.80
2019-02-02T01:22:20.879Z,6.30
2019-02-02T01:23:20.915Z,6.40
2019-02-02T01:24:20.919Z,4.70
2019-02-02T01:25:20.926Z,5.20
2019-02-02T01:26:20.844Z,4.70
2019-02-02T01:27:20.888Z,5.40
2019-02-02T01:28:20.832Z,4.40
2019-02-02T01:29:20.850Z,5.80
2019-02-02T01:30:20.810Z,3.90
2019-02-02T01:31:20.783Z,3.80
2019-02-02T01:32:20.771Z,4.40
2019-02-02T01:33:20.772Z,5.40
2019-02-02T01:34:20.738Z,5.30
2019-02-02T01:35:20.745Z,4.90
2019-02-02T01:36:20.727Z,5.10
2019-02-02T01:37:20.711Z,5.40
2019-02-02T01:38:20.707Z,3.90
2019-02-02T01:39:20.702Z,4.90
2019-02-02T01:40:20.690Z,5.00
2019-02-02T01:41:20.665Z,3.90
2019-02-02T01:42:20.733Z,4.60
2019-02-02T01:43:20.639Z,4.60
2019-02-02T01:44:20.693Z,4.40
2019-02-02T01:45:20.628Z,6.00
2019-02-02T01:46:20.614Z,5.10
2019-02-02T01:47:20.593Z,4.90
2019-02-02T01:48:20.583Z,4.90
2019-02-02T01:49:20.583Z,5.60
2019-02-02T01:50:20.670Z,5.30
2019-02-02T01:51:20.555Z,4.10
2019-02-02T01:52:20.540Z,6.00
2019-02-02T01:53:20.547Z,4.80
2019-02-02T01:54:20.508Z,5.00
2019-02-02T01:55:20.509Z,4.50
2019-02-02T01:56:20.490Z,4.60
2019-02-02T01:57:20.487Z,5.10
2019-02-02T01:58:20.543Z,4.30
2019-02-02T01:59:20.463Z,5.00
2019-02-02T02:00:20.459Z,4.90
2019-02-02T02:01:20.467Z,5.40
2019-02-02T02:02:20.465Z,5.00
2019-02-02T02:03:20.415Z,5.10
2019-02-02T02:04:20.405Z,4.60
2019-02-02T02:05:20.434Z,5.20
2019-02-02T02:06:20.387Z,4.70
2019-02-02T02:07:20.379Z,4.30
2019-02-02T02:08:20.361Z,4.60
2019-02-02T02:09:20.352Z,4.30
2019-02-02T02:10:20.373Z,5.10
2019-02-02T02:11:20.327Z,5.00
2019-02-02T02:12:20.370Z,3.90
2019-02-02T02:13:20.315Z,5.30
2019-02-02T02:14:20.297Z,4.20
2019-02-02T02:15:20.281Z,4.70
2019-02-02T02:16:20.280Z,4.50
2019-02-02T02:17:20.258Z,5.20
2019-02-02T02:18:20.240Z,4.30
2019-02-02T02:19:20.332Z,5.40
2019-02-02T02:20:20.217Z,4.50
2019-02-02T02:21:20.402Z,6.70
2019-02-02T02:22:20.211Z,4.40
2019-02-02T02:23:20.180Z,3.90
2019-02-02T02:24:20.177Z,5.60
2019-02-02T02:25:20.161Z,4.80
2019-02-02T02:26:20.178Z,5.40
2019-02-02T02:27:20.147Z,4.60
2019-02-02T02:28:27.870Z,5.30
2019-02-02T02:29:21.121Z,4.30
2019-02-02T02:30:20.168Z,4.60
2019-02-02T02:31:20.146Z,4.00
2019-02-02T02:32:20.123Z,4.00
2019-02-02T02:33:20.084Z,4.50
2019-02-02T02:34:20.062Z,3.60
2019-02-02T02:35:20.055Z,4.90
2019-02-02T02:36:20.045Z,4.10
2019-02-02T02:37:20.025Z,3.80
2019-02-02T02:38:20.023Z,4.70
2019-02-02T02:39:20.011Z,5.60
2019-02-02T02:40:20.008Z,4.30
2019-02-02T02:41:19.998Z,4.60
2019-02-02T02:42:20.007Z,4.30
2019-02-02T02:43:19.967Z,3.70
2019-02-02T02:44:19.947Z,3.90
2019-02-02T02:45:19.953Z,4.30
2019-02-02T02:46:19.976Z,4.50
2019-02-02T02:47:19.955Z,4.30
2019-02-02T02:48:19.904Z,4.60
2019-02-02T02:49:19.885Z,4.70
2019-02-02T02:50:19.900Z,5.00
2019-02-02T02:51:19.898Z,5.50
2019-02-02T02:52:19.861Z,3.80
2019-02-02T02:53:19.842Z,4.10
2019-02-02T02:54:19.921Z,4.20
2019-02-02T02:55:19.861Z,4.30
2019-02-02T02:56:20.766Z,4.00
2019-02-02T02:57:19.817Z,3.30
2019-02-02T02:58:19.831Z,4.60
2019-02-02T02:59:19.778Z,3.80
2019-02-02T03:00:19.762Z,3.70
2019-02-02T03:01:19.805Z,4.10
2019-02-02T03:02:19.746Z,4.40
2019-02-02T03:03:19.741Z,7.10
2019-02-02T03:04:19.718Z,5.60
2019-02-02T03:05:19.710Z,3.80
2019-02-02T03:06:19.779Z,3.90
2019-02-02T03:07:19.714Z,4.20
2019-02-02T03:08:19.670Z,3.70
2019-02-02T03:09:19.660Z,5.20
2019-02-02T03:10:19.649Z,4.60
2019-02-02T03:11:19.639Z,5.80
2019-02-02T03:12:19.740Z,4.60
2019-02-02T03:13:19.614Z,4.40
2019-02-02T03:14:19.621Z,3.40
2019-02-02T03:15:19.606Z,3.40
2019-02-02T03:16:19.618Z,4.80
2019-02-02T03:17:19.584Z,3.40
2019-02-02T03:18:19.567Z,4.80
2019-02-02T03:19:19.554Z,3.50
2019-02-02T03:20:19.546Z,4.60
2019-02-02T03:21:19.599Z,3.80
2019-02-02T03:22:19.538Z,3.40
2019-02-02T03:23:19.515Z,4.20
2019-02-02T03:24:19.495Z,4.20
2019-02-02T03:25:19.476Z,3.70
2019-02-02T03:26:19.501Z,4.20
2019-02-02T03:27:19.468Z,5.00
2019-02-02T03:28:19.446Z,4.30
2019-02-02T03:29:19.441Z,5.20
2019-02-02T03:30:19.513Z,3.70
2019-02-02T03:31:19.418Z,3.90
2019-02-02T03:32:19.765Z,5.50
2019-02-02T03:33:19.674Z,4.00
2019-02-02T03:34:19.401Z,3.30
2019-02-02T03:35:19.374Z,4.90
2019-02-02T03:36:19.358Z,3.60
2019-02-02T03:37:19.356Z,3.70
2019-02-02T03:38:19.348Z,5.20
2019-02-02T03:39:19.374Z,5.60
2019-02-02T03:40:19.336Z,4.80
2019-02-02T03:41:19.306Z,4.30
2019-02-02T03:42:19.381Z,4.20
2019-02-02T03:43:19.288Z,4.00
2019-02-02T03:44:19.263Z,3.80
2019-02-02T03:45:19.282Z,5.70
2019-02-02T03:46:19.326Z,3.40
2019-02-02T03:47:19.262Z,4.60
2019-02-02T03:48:19.225Z,4.00
2019-02-02T03:49:19.209Z,3.80
2019-02-02T03:50:19.205Z,4.10
2019-02-02T03:51:19.230Z,4.20
2019-02-02T03:52:19.223Z,4.30
2019-02-02T03:53:19.191Z,3.80
2019-02-02T03:54:19.152Z,4.60
2019-02-02T03:55:19.162Z,3.30
2019-02-02T03:56:19.192Z,4.90
2019-02-02T03:57:19.114Z,4.10
2019-02-02T03:58:19.149Z,3.30
2019-02-02T03:59:19.095Z,3.70
2019-02-02T04:00:19.079Z,3.10
2019-02-02T04:01:19.082Z,3.40
2019-02-02T04:02:19.071Z,4.50
2019-02-02T04:03:19.057Z,4.10
2019-02-02T04:04:19.034Z,4.30
2019-02-02T04:05:19.025Z,3.50
2019-02-02T04:06:19.022Z,4.10
2019-02-02T04:07:19.016Z,3.70
2019-02-02T04:08:19.009Z,4.60
2019-02-02T04:09:19.042Z,3.50
2019-02-02T04:10:18.969Z,3.30
2019-02-02T04:11:18.960Z,4.00
2019-02-02T04:12:19.041Z,4.10
2019-02-02T04:13:18.933Z,3.70
2019-02-02T04:14:18.924Z,4.60
2019-02-02T04:15:18.933Z,4.20
2019-02-02T04:16:18.908Z,4.00
2019-02-02T04:17:18.907Z,5.60
2019-02-02T04:18:18.892Z,3.80
2019-02-02T04:19:18.877Z,5.10
2019-02-02T04:20:18.960Z,3.70
2019-02-02T04:21:18.855Z,3.90
2019-02-02T04:22:18.843Z,4.80
2019-02-02T04:23:18.826Z,4.50
2019-02-02T04:24:18.834Z,4.20
2019-02-02T04:25:18.798Z,4.40
2019-02-02T04:26:18.793Z,3.60
2019-02-02T04:27:18.813Z,3.90
2019-02-02T04:28:18.783Z,3.90
2019-02-02T04:29:18.752Z,3.90
2019-02-02T04:30:18.739Z,5.20
2019-02-02T04:31:18.732Z,3.60
2019-02-02T04:32:18.716Z,4.80
2019-02-02T04:33:18.741Z,3.70
2019-02-02T04:34:18.693Z,4.60
2019-02-02T04:35:18.688Z,3.80
2019-02-02T04:36:18.738Z,3.60
2019-02-02T04:37:18.668Z,5.40
2019-02-02T04:38:18.671Z,5.80
2019-02-02T04:39:18.645Z,3.90
2019-02-02T04:40:18.626Z,4.60
2019-02-02T04:41:18.667Z,3.60
2019-02-02T04:42:18.703Z,4.30
2019-02-02T04:43:18.608Z,3.80
2019-02-02T04:44:18.609Z,4.70
2019-02-02T04:45:18.701Z,5.00
2019-02-02T04:46:18.629Z,3.90
2019-02-02T04:47:18.600Z,3.40
2019-02-02T04:48:18.539Z,4.60
2019-02-02T04:49:18.538Z,4.90
2019-02-02T04:50:18.526Z,4.30
2019-02-02T04:51:18.508Z,5.10
2019-02-02T04:52:18.497Z,4.30
2019-02-02T04:53:18.484Z,4.00
2019-02-02T04:54:18.483Z,4.70
2019-02-02T04:55:18.460Z,4.20
2019-02-02T04:56:18.463Z,4.00
2019-02-02T04:57:18.440Z,5.10
2019-02-02T04:58:18.433Z,3.60
2019-02-02T04:59:28.783Z,4.80
2019-02-02T05:00:19.414Z,4.10
2019-02-02T05:01:18.396Z,5.30
2019-02-02T05:02:18.397Z,4.60
2019-02-02T05:03:18.399Z,3.60
2019-02-02T05:04:18.400Z,4.20
2019-02-02T05:05:18.348Z,4.50
2019-02-02T05:06:18.351Z,4.10
2019-02-02T05:07:18.325Z,4.50
2019-02-02T05:08:18.334Z,3.50
2019-02-02T05:09:18.325Z,4.00
2019-02-02T05:10:18.312Z,4.80
2019-02-02T05:11:18.290Z,5.20
2019-02-02T05:12:18.302Z,5.30
2019-02-02T05:13:18.263Z,4.60
2019-02-02T05:14:18.261Z,4.40
2019-02-02T05:15:18.243Z,4.60
2019-02-02T05:16:18.245Z,4.10
2019-02-02T05:17:18.256Z,4.10
2019-02-02T05:18:18.209Z,4.40
2019-02-02T05:19:18.206Z,5.00
2019-02-02T05:20:18.189Z,5.40
2019-02-02T05:21:18.162Z,4.90
2019-02-02T05:22:18.158Z,4.10
2019-02-02T05:23:18.149Z,5.30
2019-02-02T05:24:18.182Z,4.70
2019-02-02T05:25:18.207Z,4.30
2019-02-02T05:26:18.130Z,4.60
2019-02-02T05:27:18.100Z,3.60
2019-02-02T05:28:18.109Z,3.90
2019-02-02T05:29:18.265Z,4.50
2019-02-02T05:30:18.064Z,4.30
2019-02-02T05:31:18.053Z,5.80
2019-02-02T05:32:18.040Z,5.20
2019-02-02T05:33:18.030Z,4.60
2019-02-02T05:34:18.021Z,4.30
2019-02-02T05:35:18.045Z,4.20
2019-02-02T05:36:18.005Z,4.90
2019-02-02T05:37:17.978Z,5.20
2019-02-02T05:38:18.093Z,4.20
2019-02-02T05:39:17.957Z,3.70
2019-02-02T05:40:17.957Z,4.10
2019-02-02T05:41:17.944Z,4.50
2019-02-02T05:42:17.964Z,5.10
2019-02-02T05:43:17.947Z,5.30
2019-02-02T05:44:17.947Z,4.20
2019-02-02T05:45:17.996Z,4.30
2019-02-02T05:46:17.885Z,4.90
2019-02-02T05:47:17.932Z,4.90
2019-02-02T05:48:17.869Z,4.70
2019-02-02T05:49:17.882Z,3.60
2019-02-02T05:50:17.859Z,5.90
2019-02-02T05:51:17.837Z,4.30
2019-02-02T05:52:17.859Z,3.70
2019-02-02T05:53:17.834Z,5.40
2019-02-02T05:54:17.900Z,6.30
2019-02-02T05:55:18.608Z,5.00
2019-02-02T05:56:17.861Z,4.00
2019-02-02T05:57:17.776Z,10.90
2019-02-02T05:58:17.766Z,14.10
2019-02-02T05:59:17.738Z,12.40
2019-02-02T06:00:18.081Z,13.50
2019-02-02T06:01:17.712Z,12.90
2019-02-02T06:02:17.699Z,11.70
2019-02-02T06:03:17.748Z,10.40
2019-02-02T06:04:20.428Z,13.10
2019-02-02T06:05:17.678Z,15.70
2019-02-02T06:06:17.692Z,10.70
2019-02-02T06:07:17.641Z,8.70
2019-02-02T06:08:17.671Z,7.80
2019-02-02T06:09:17.621Z,9.70
2019-02-02T06:10:17.623Z,11.60
2019-02-02T06:11:17.641Z,9.00
2019-02-02T06:12:17.687Z,7.20
2019-02-02T06:13:17.576Z,9.70
2019-02-02T06:14:17.582Z,9.70
2019-02-02T06:15:17.563Z,9.20
2019-02-02T06:16:17.550Z,7.60
2019-02-02T06:17:17.529Z,7.30
2019-02-02T06:18:17.579Z,11.70
2019-02-02T06:19:17.510Z,25.70
2019-02-02T06:20:17.512Z,32.80
2019-02-02T06:21:17.486Z,29.20
2019-02-02T06:22:17.506Z,20.60
2019-02-02T06:23:17.479Z,16.70
2019-02-02T06:24:17.462Z,18.60
2019-02-02T06:25:17.549Z,16.70
2019-02-02T06:26:17.422Z,16.10
2019-02-02T06:27:17.414Z,16.20
2019-02-02T06:28:17.421Z,18.30
2019-02-02T06:29:17.393Z,18.00
2019-02-02T06:30:17.390Z,21.20
2019-02-02T06:31:17.380Z,14.60
2019-02-02T06:32:17.432Z,14.60
2019-02-02T06:33:17.402Z,17.30
2019-02-02T06:34:17.330Z,16.30
2019-02-02T06:35:17.334Z,18.10
2019-02-02T06:36:17.318Z,27.10
2019-02-02T06:37:17.295Z,18.00
2019-02-02T06:38:17.295Z,17.50
2019-02-02T06:39:17.311Z,16.10
2019-02-02T06:40:17.265Z,16.50
2019-02-02T06:41:17.291Z,18.00
2019-02-02T06:42:17.324Z,11.20
2019-02-02T06:43:17.244Z,13.90
2019-02-02T06:44:17.249Z,10.70
2019-02-02T06:45:17.229Z,12.70
2019-02-02T06:46:17.199Z,17.90
2019-02-02T06:47:17.204Z,11.50
2019-02-02T06:48:17.175Z,13.20
2019-02-02T06:49:17.167Z,12.20
2019-02-02T06:50:17.156Z,10.90
2019-02-02T06:51:17.188Z,10.60
2019-02-02T06:52:17.156Z,7.20
2019-02-02T06:53:17.142Z,9.10
2019-02-02T06:54:17.126Z,7.80
2019-02-02T06:55:17.092Z,9.90
2019-02-02T06:56:17.126Z,10.00
2019-02-02T06:57:17.090Z,6.90
2019-02-02T06:58:17.057Z,7.50
2019-02-02T06:59:17.056Z,10.00
2019-02-02T07:00:17.046Z,8.20
2019-02-02T07:01:17.035Z,8.50
2019-02-02T07:02:17.019Z,9.30
2019-02-02T07:03:17.010Z,8.90
2019-02-02T07:04:16.996Z,9.10
2019-02-02T07:05:16.982Z,10.90
2019-02-02T07:06:17.027Z,7.50
2019-02-02T07:07:16.964Z,10.20
2019-02-02T07:08:16.943Z,8.00
2019-02-02T07:09:16.942Z,8.60
2019-02-02T07:10:16.942Z,7.10
2019-02-02T07:11:16.929Z,7.30
2019-02-02T07:12:16.987Z,10.30
2019-02-02T07:13:16.924Z,12.10
2019-02-02T07:14:16.879Z,9.30
2019-02-02T07:15:16.890Z,10.50
2019-02-02T07:16:16.938Z,10.90
2019-02-02T07:17:16.851Z,9.70
2019-02-02T07:18:16.830Z,10.30
2019-02-02T07:19:16.871Z,10.90
2019-02-02T07:20:16.814Z,11.30
2019-02-02T07:21:16.813Z,7.50
2019-02-02T07:22:16.797Z,10.50
2019-02-02T07:23:16.774Z,9.90
2019-02-02T07:24:16.774Z,8.90
2019-02-02T07:25:16.794Z,10.00
2019-02-02T07:26:16.778Z,8.90
2019-02-02T07:27:16.741Z,11.60
2019-02-02T07:28:16.822Z,6.90
2019-02-02T07:29:16.712Z,8.20
2019-02-02T07:30:27.578Z,8.40
2019-02-02T07:31:17.720Z,10.80
2019-02-02T07:32:16.671Z,7.70
2019-02-02T07:33:16.674Z,10.50
2019-02-02T07:34:16.675Z,7.50
2019-02-02T07:35:16.737Z,10.60
2019-02-02T07:36:16.640Z,7.40
2019-02-02T07:37:16.626Z,7.20
2019-02-02T07:38:16.602Z,9.00
2019-02-02T07:39:16.607Z,9.60
2019-02-02T07:40:16.750Z,8.30
2019-02-02T07:41:16.584Z,6.70
2019-02-02T07:42:16.615Z,10.70
2019-02-02T07:43:16.549Z,8.70
2019-02-02T07:44:16.568Z,10.50
2019-02-02T07:45:16.536Z,9.60
2019-02-02T07:46:16.541Z,11.80
2019-02-02T07:47:16.508Z,8.80
2019-02-02T07:48:16.507Z,9.00
2019-02-02T07:49:16.507Z,8.20
2019-02-02T07:50:16.469Z,8.80
2019-02-02T07:51:16.489Z,9.00
2019-02-02T07:52:16.476Z,9.00
2019-02-02T07:53:16.443Z,8.40
2019-02-02T07:54:16.459Z,8.90
2019-02-02T07:55:16.413Z,8.80
2019-02-02T07:56:16.400Z,8.00
2019-02-02T07:57:16.473Z,8.70
2019-02-02T07:58:16.380Z,8.50
2019-02-02T07:59:16.396Z,8.30
2019-02-02T08:00:16.371Z,10.00
2019-02-02T08:01:16.364Z,8.10
2019-02-02T08:02:16.367Z,9.30
2019-02-02T08:03:16.377Z,8.50
2019-02-02T08:04:16.327Z,6.50
2019-02-02T08:05:16.306Z,8.80
2019-02-02T08:06:16.296Z,6.70
2019-02-02T08:07:16.309Z,6.60
2019-02-02T08:08:17.166Z,8.20
2019-02-02T08:09:16.266Z,11.60
2019-02-02T08:10:16.359Z,14.50
2019-02-02T08:11:16.228Z,9.60
2019-02-02T08:12:19.376Z,10.70
2019-02-02T08:13:16.252Z,7.80
2019-02-02T08:14:16.217Z,8.60
2019-02-02T08:15:16.246Z,7.30
2019-02-02T08:16:16.185Z,8.90
2019-02-02T08:17:16.229Z,7.60
2019-02-02T08:18:16.154Z,8.10
2019-02-02T08:19:16.163Z,7.00
2019-02-02T08:20:16.163Z,7.20
2019-02-02T08:21:16.148Z,6.40
2019-02-02T08:22:16.163Z,7.10
2019-02-02T08:23:16.121Z,5.90
2019-02-02T08:24:16.102Z,6.50
2019-02-02T08:25:16.113Z,8.30
2019-02-02T08:26:16.062Z,6.50
2019-02-02T08:27:16.139Z,6.00
2019-02-02T08:28:16.082Z,6.30
2019-02-02T08:29:16.028Z,6.20
2019-02-02T08:30:16.678Z,7.50
2019-02-02T08:31:16.034Z,5.90
2019-02-02T08:32:16.059Z,8.00
2019-02-02T08:33:15.985Z,7.50
2019-02-02T08:34:15.986Z,4.70
2019-02-02T08:35:15.980Z,6.20
2019-02-02T08:36:16.023Z,5.30
2019-02-02T08:37:15.965Z,5.20
2019-02-02T08:38:15.958Z,5.50
2019-02-02T08:39:15.936Z,6.20
2019-02-02T08:40:15.904Z,7.10
2019-02-02T08:41:15.962Z,4.60
2019-02-02T08:42:15.993Z,6.60
2019-02-02T08:43:15.961Z,5.90
2019-02-02T08:44:15.952Z,6.50
2019-02-02T08:45:15.847Z,5.90
2019-02-02T08:46:15.875Z,5.30
2019-02-02T08:47:15.830Z,4.60
2019-02-02T08:48:15.889Z,4.70
2019-02-02T08:49:15.821Z,5.80
2019-02-02T08:50:15.841Z,4.30
2019-02-02T08:51:15.927Z,4.60
2019-02-02T08:52:15.804Z,6.10
2019-02-02T08:53:15.836Z,5.80
2019-02-02T08:54:15.790Z,4.50
2019-02-02T08:55:15.784Z,5.60
2019-02-02T08:56:15.802Z,5.50
2019-02-02T08:57:15.760Z,4.70
2019-02-02T08:58:15.836Z,3.70
2019-02-02T08:59:15.741Z,4.60
2019-02-02T09:00:15.731Z,7.20
2019-02-02T09:01:15.684Z,4.30
2019-02-02T09:02:16.106Z,4.80
2019-02-02T09:03:15.673Z,5.50
2019-02-02T09:04:15.661Z,5.80
2019-02-02T09:05:15.736Z,3.90
2019-02-02T09:06:15.621Z,5.40
2019-02-02T09:07:15.594Z,5.10
2019-02-02T09:08:15.722Z,5.10
2019-02-02T09:09:15.584Z,3.90
2019-02-02T09:10:15.585Z,4.30
2019-02-02T09:11:15.604Z,5.20
2019-02-02T09:12:20.461Z,4.40
2019-02-02T09:13:15.539Z,3.70
2019-02-02T09:14:15.515Z,3.70
2019-02-02T09:15:15.508Z,4.60
2019-02-02T09:16:15.520Z,3.60
2019-02-02T09:17:15.486Z,4.50
2019-02-02T09:18:15.973Z,3.90
2019-02-02T09:19:15.514Z,3.90
2019-02-02T09:20:15.469Z,3.80
2019-02-02T09:21:15.506Z,3.90
2019-02-02T09:22:15.553Z,4.00
2019-02-02T09:23:15.475Z,4.40
2019-02-02T09:24:15.402Z,4.90
2019-02-02T09:25:15.422Z,4.30
2019-02-02T09:26:15.431Z,3.90
2019-02-02T09:27:15.413Z,3.40
2019-02-02T09:28:15.466Z,3.80
2019-02-02T09:29:15.472Z,3.90
2019-02-02T09:30:15.531Z,4.80
2019-02-02T09:31:16.183Z,4.90
2019-02-02T09:32:15.338Z,2.60
2019-02-02T09:33:15.402Z,3.10
2019-02-02T09:34:15.333Z,4.20
2019-02-02T09:35:15.282Z,3.30
2019-02-02T09:36:16.847Z,3.10
2019-02-02T09:37:15.305Z,4.10
2019-02-02T09:38:15.255Z,4.10
2019-02-02T09:39:15.283Z,3.10
2019-02-02T09:40:15.351Z,4.20
2019-02-02T09:41:15.214Z,3.50
2019-02-02T09:42:20.023Z,3.20
2019-02-02T09:43:15.226Z,3.50
2019-02-02T09:44:15.208Z,3.70
2019-02-02T09:45:15.180Z,4.80
2019-02-02T09:46:15.193Z,3.60
2019-02-02T09:47:15.199Z,3.60
2019-02-02T09:48:15.144Z,3.60
2019-02-02T09:49:15.467Z,5.00
2019-02-02T09:50:15.131Z,3.10
2019-02-02T09:51:15.125Z,3.10
2019-02-02T09:52:15.089Z,3.20
2019-02-02T09:53:15.081Z,3.10
2019-02-02T09:54:26.122Z,3.90
2019-02-02T09:55:16.128Z,3.50
2019-02-02T09:56:15.071Z,4.30
2019-02-02T09:57:17.102Z,3.50
2019-02-02T09:58:15.023Z,4.50
2019-02-02T09:59:15.038Z,3.40
2019-02-02T10:00:15.054Z,3.20
2019-02-02T10:01:14.992Z,4.10
2019-02-02T10:02:15.031Z,4.30
2019-02-02T10:03:14.959Z,3.90
2019-02-02T10:04:14.963Z,3.60
2019-02-02T10:05:15.031Z,4.40
2019-02-02T10:06:14.948Z,3.00
2019-02-02T10:07:14.984Z,3.80
2019-02-02T10:08:14.932Z,2.90
2019-02-02T10:09:15.016Z,3.50
2019-02-02T10:10:14.933Z,3.00
2019-02-02T10:11:14.909Z,2.90
2019-02-02T10:12:21.121Z,2.90
2019-02-02T10:13:14.861Z,4.20
2019-02-02T10:14:14.885Z,3.80
2019-02-02T10:15:14.834Z,3.60
2019-02-02T10:16:14.839Z,3.20
2019-02-02T10:17:14.833Z,3.60
2019-02-02T10:18:14.816Z,3.90
2019-02-02T10:19:14.973Z,3.60
2019-02-02T10:20:14.791Z,3.00
2019-02-02T10:21:14.775Z,4.80
2019-02-02T10:22:14.788Z,3.10
2019-02-02T10:23:15.024Z,4.10
2019-02-02T10:24:14.721Z,3.10
2019-02-02T10:25:14.752Z,3.50
2019-02-02T10:26:14.719Z,3.70
2019-02-02T10:27:14.854Z,3.30
2019-02-02T10:28:14.706Z,4.40
2019-02-02T10:29:14.706Z,3.00
2019-02-02T10:30:14.690Z,2.90
2019-02-02T10:31:14.696Z,3.20
2019-02-02T10:32:14.638Z,3.00
2019-02-02T10:33:14.677Z,3.10
2019-02-02T10:34:14.616Z,4.50
2019-02-02T10:35:14.723Z,3.50
2019-02-02T10:36:14.628Z,3.10
2019-02-02T10:37:14.582Z,4.20
2019-02-02T10:38:14.586Z,3.60
2019-02-02T10:39:14.603Z,3.10
2019-02-02T10:40:14.598Z,3.50
2019-02-02T10:41:14.534Z,4.10
2019-02-02T10:42:14.521Z,3.60
2019-02-02T10:43:14.511Z,4.00
2019-02-02T10:44:14.566Z,2.70
2019-02-02T10:45:14.529Z,4.20
2019-02-02T10:46:14.484Z,3.50
2019-02-02T10:47:14.463Z,3.30
2019-02-02T10:48:14.461Z,3.50
2019-02-02T10:49:14.480Z,3.70
2019-02-02T10:50:14.544Z,5.10
2019-02-02T10:51:14.422Z,4.00
2019-02-02T10:52:14.415Z,3.10
2019-02-02T10:53:14.401Z,2.90
2019-02-02T10:54:14.387Z,3.30
2019-02-02T10:55:14.436Z,3.80
2019-02-02T10:56:14.394Z,3.00
2019-02-02T10:57:14.355Z,4.60
2019-02-02T10:58:14.340Z,3.40
2019-02-02T10:59:14.427Z,2.90
2019-02-02T11:00:14.365Z,3.40
2019-02-02T11:01:14.328Z,2.80
2019-02-02T11:02:14.366Z,3.60
2019-02-02T11:03:14.311Z,2.90
2019-02-02T11:04:14.307Z,3.50
2019-02-02T11:05:14.415Z,3.20
2019-02-02T11:06:14.301Z,3.60
2019-02-02T11:07:14.369Z,3.50
2019-02-02T11:08:14.263Z,3.10
2019-02-02T11:09:14.264Z,4.10
2019-02-02T11:10:14.285Z,4.00
2019-02-02T11:11:14.356Z,3.00
2019-02-02T11:12:14.289Z,3.90
2019-02-02T11:13:16.349Z,3.80
2019-02-02T11:14:14.222Z,2.90
2019-02-02T11:15:14.412Z,4.90
2019-02-02T11:16:14.172Z,3.10
2019-02-02T11:17:14.150Z,3.60
2019-02-02T11:18:14.185Z,4.20
2019-02-02T11:19:14.410Z,3.80
2019-02-02T11:20:14.204Z,3.80
2019-02-02T11:21:14.240Z,3.40
2019-02-02T11:22:14.178Z,3.20
2019-02-02T11:23:14.053Z,4.70
2019-02-02T11:24:14.057Z,3.50
2019-02-02T11:25:14.096Z,4.50
2019-02-02T11:26:14.162Z,3.40
2019-02-02T11:27:14.279Z,3.70
2019-02-02T11:28:14.192Z,5.20
2019-02-02T11:29:14.149Z,3.10
2019-02-02T11:30:14.074Z,3.80
2019-02-02T11:31:14.034Z,3.90
2019-02-02T11:32:13.958Z,4.40
2019-02-02T11:33:13.982Z,4.70
2019-02-02T11:34:13.947Z,4.50
2019-02-02T11:35:13.920Z,4.30
2019-02-02T11:36:15.341Z,4.20
2019-02-02T11:37:14.832Z,3.00
2019-02-02T11:38:13.890Z,4.70
2019-02-02T11:39:13.874Z,4.00
2019-02-02T11:40:13.877Z,4.60
2019-02-02T11:41:13.873Z,3.50
2019-02-02T11:42:18.656Z,5.60
2019-02-02T11:43:13.841Z,4.80
2019-02-02T11:44:13.820Z,4.00
2019-02-02T11:45:13.815Z,4.00
2019-02-02T11:46:13.891Z,3.30
2019-02-02T11:47:13.820Z,4.70
2019-02-02T11:48:15.101Z,3.20
2019-02-02T11:49:13.820Z,4.20
2019-02-02T11:50:13.896Z,4.20
2019-02-02T11:51:13.754Z,3.90
2019-02-02T11:52:13.726Z,3.80
2019-02-02T11:53:13.785Z,4.10
2019-02-02T11:54:13.716Z,4.20
2019-02-02T11:55:13.702Z,3.40
2019-02-02T11:56:13.741Z,3.60
2019-02-02T11:57:13.704Z,4.60
2019-02-02T11:58:13.682Z,4.40
2019-02-02T11:59:13.661Z,4.60
2019-02-02T12:00:16.292Z,5.10
2019-02-02T12:01:13.675Z,4.80
2019-02-02T12:02:14.905Z,3.60
2019-02-02T12:03:13.620Z,4.40
2019-02-02T12:04:13.645Z,4.50
2019-02-02T12:05:13.586Z,5.10
2019-02-02T12:06:13.615Z,5.10
2019-02-02T12:07:13.553Z,3.90
2019-02-02T12:08:13.559Z,5.60
2019-02-02T12:09:13.580Z,4.20
2019-02-02T12:10:13.548Z,5.00
2019-02-02T12:11:13.624Z,4.80
2019-02-02T12:12:13.601Z,4.40
2019-02-02T12:13:13.501Z,4.80
2019-02-02T12:14:13.549Z,4.10
2019-02-02T12:15:13.474Z,5.00
2019-02-02T12:16:13.501Z,5.80
2019-02-02T12:17:13.609Z,4.50
2019-02-02T12:18:13.456Z,3.80
2019-02-02T12:19:13.453Z,5.40
2019-02-02T12:20:13.415Z,5.30
2019-02-02T12:21:13.416Z,4.30
2019-02-02T12:22:13.449Z,5.30
2019-02-02T12:23:13.448Z,4.80
2019-02-02T12:24:16.225Z,5.10
2019-02-02T12:25:13.415Z,6.70
2019-02-02T12:26:13.379Z,4.90
2019-02-02T12:27:13.350Z,4.50
2019-02-02T12:28:13.372Z,4.70
2019-02-02T12:29:13.345Z,4.80
2019-02-02T12:30:13.298Z,5.30
2019-02-02T12:31:13.390Z,4.30
2019-02-02T12:32:13.387Z,4.90
2019-02-02T12:33:13.272Z,4.20
2019-02-02T12:34:13.261Z,4.00
2019-02-02T12:35:13.366Z,6.00
2019-02-02T12:36:13.276Z,5.40
2019-02-02T12:37:13.321Z,3.70
2019-02-02T12:38:13.290Z,3.60
2019-02-02T12:39:13.197Z,4.10
2019-02-02T12:40:13.218Z,5.10
2019-02-02T12:41:13.192Z,5.40
2019-02-02T12:42:13.233Z,4.00
2019-02-02T12:43:13.197Z,5.00
2019-02-02T12:44:13.182Z,4.20
2019-02-02T12:45:13.168Z,4.60
2019-02-02T12:46:13.156Z,4.10
2019-02-02T12:47:13.122Z,4.10
2019-02-02T12:48:13.117Z,4.00
2019-02-02T12:49:13.104Z,4.60
2019-02-02T12:50:13.115Z,5.40
2019-02-02T12:51:13.126Z,6.60
2019-02-02T12:52:13.152Z,5.70
2019-02-02T12:53:13.920Z,5.20
2019-02-02T12:54:13.097Z,3.90
2019-02-02T12:55:13.041Z,4.60
2019-02-02T12:56:13.020Z,4.40
2019-02-02T12:57:13.188Z,4.20
2019-02-02T12:58:13.019Z,5.60
2019-02-02T12:59:12.977Z,5.50
2019-02-02T13:00:12.990Z,4.60
2019-02-02T13:01:12.965Z,4.00
2019-02-02T13:02:12.980Z,5.80
2019-02-02T13:03:12.950Z,4.30
2019-02-02T13:04:12.913Z,3.90
2019-02-02T13:05:12.939Z,5.40
2019-02-02T13:06:12.906Z,4.50
2019-02-02T13:07:12.877Z,5.70
2019-02-02T13:08:12.894Z,5.70
2019-02-02T13:09:12.941Z,5.40
2019-02-02T13:10:12.855Z,4.60
2019-02-02T13:11:12.832Z,6.20
2019-02-02T13:12:12.864Z,4.90
2019-02-02T13:13:12.938Z,5.10
2019-02-02T13:14:12.799Z,4.70
2019-02-02T13:15:12.803Z,4.60
2019-02-02T13:16:12.883Z,4.40